createdAt,value
2022-09-20T00:02:10.380Z,100.00
2022-09-20T00:04:55.414Z,99.75
2022-09-20T00:07:40.840Z,99.98
2022-09-20T00:10:26.619Z,100.00
2022-09-20T00:13:13.550Z,99.87
2022-09-20T00:15:59.377Z,100.00
2022-09-20T00:18:49.606Z,100.00
2022-09-20T00:21:36.299Z,100.00
2022-09-20T00:24:21.396Z,100.00
2022-09-20T00:27:06.203Z,100.00
2022-09-20T00:29:51.004Z,100.00
2022-09-20T00:32:35.882Z,100.00
2022-09-20T00:35:20.819Z,100.00
2022-09-20T00:38:05.582Z,100.00
2022-09-20T00:40:50.997Z,100.00
2022-09-20T00:43:46.546Z,100.00
2022-09-20T00:46:39.766Z,100.00
2022-09-20T00:49:28.391Z,100.00
2022-09-20T00:52:14.456Z,100.00
2022-09-20T00:55:00.793Z,100.00
2022-09-20T00:57:46.859Z,100.00
2022-09-20T01:00:32.276Z,100.00
2022-09-20T01:03:22.708Z,100.00
2022-09-20T01:06:13.650Z,100.00
2022-09-20T01:09:02.458Z,100.00
2022-09-20T01:11:48.363Z,100.00
2022-09-20T01:14:34.816Z,100.00
2022-09-20T01:17:24.756Z,100.00
2022-09-20T01:20:22.565Z,100.00
2022-09-20T01:23:32.418Z,100.00
2022-09-20T01:26:48.512Z,100.00
2022-09-20T01:29:45.204Z,100.00
2022-09-20T01:32:42.699Z,100.00
2022-09-20T01:35:29.147Z,100.00
2022-09-20T01:38:33.040Z,100.00
2022-09-20T01:41:26.882Z,100.00
2022-09-20T01:44:24.801Z,100.00
2022-09-20T01:47:43.828Z,100.00
2022-09-20T01:50:52.276Z,100.00
2022-09-20T01:53:55.016Z,100.00
2022-09-20T01:56:54.888Z,100.00
2022-09-20T01:59:50.377Z,100.00
2022-09-20T02:03:00.323Z,100.00
2022-09-20T02:06:03.596Z,100.00
2022-09-20T02:09:03.787Z,100.00
2022-09-20T02:12:23.656Z,100.00
2022-09-20T02:15:34.012Z,100.00
2022-09-20T02:18:46.001Z,100.00
2022-09-20T02:21:54.080Z,100.00
2022-09-20T02:25:20.620Z,100.00
2022-09-20T02:28:23.149Z,100.00
2022-09-20T02:31:45.925Z,100.00
2022-09-20T02:34:49.303Z,100.00
2022-09-20T02:38:05.273Z,100.00
2022-09-20T02:41:13.355Z,100.00
2022-09-20T02:44:39.187Z,100.00
2022-09-20T02:47:36.925Z,100.00
2022-09-20T02:50:40.990Z,100.00
2022-09-20T02:53:40.797Z,100.00
2022-09-20T02:56:46.301Z,100.00
2022-09-20T02:59:37.277Z,100.00
2022-09-20T03:02:51.949Z,100.00
2022-09-20T03:06:08.188Z,100.00
2022-09-20T03:09:03.391Z,100.00
2022-09-20T03:12:19.815Z,100.00
2022-09-20T03:15:32.836Z,100.00
2022-09-20T03:18:31.245Z,100.00
2022-09-20T03:21:28.519Z,100.00
2022-09-20T03:24:43.655Z,100.00
2022-09-20T03:27:46.433Z,100.00
2022-09-20T03:30:46.321Z,100.00
2022-09-20T03:33:34.514Z,100.00
2022-09-20T03:36:28.508Z,100.00
2022-09-20T03:39:45.975Z,100.00
2022-09-20T03:42:32.910Z,100.00
2022-09-20T03:45:38.406Z,100.00
2022-09-20T03:48:59.340Z,100.00
2022-09-20T03:52:01.181Z,100.00
2022-09-20T03:55:08.363Z,100.00
2022-09-20T03:58:10.419Z,100.00
2022-09-20T04:00:58.532Z,100.00
2022-09-20T04:04:00.572Z,100.00
2022-09-20T04:07:05.938Z,100.00
2022-09-20T04:10:03.519Z,100.00
2022-09-20T04:13:16.847Z,100.00
2022-09-20T04:16:06.371Z,100.00
2022-09-20T04:19:01.227Z,100.00
2022-09-20T04:21:57.623Z,100.00
2022-09-20T04:25:05.354Z,100.00
2022-09-20T04:27:57.258Z,100.00
2022-09-20T04:30:43.958Z,100.00
2022-09-20T04:33:36.513Z,100.00
2022-09-20T04:36:50.718Z,100.00
2022-09-20T04:39:45.730Z,100.00
2022-09-20T04:42:49.801Z,100.00
2022-09-20T04:46:16.755Z,100.00
2022-09-20T04:49:07.707Z,100.00
2022-09-20T04:52:30.315Z,100.00
2022-09-20T04:55:35.526Z,100.00
2022-09-20T04:58:26.987Z,100.00
2022-09-20T05:01:19.538Z,100.00
2022-09-20T05:04:30.161Z,100.00
2022-09-20T05:07:55.320Z,100.00
2022-09-20T05:11:11.698Z,100.00
2022-09-20T05:14:05.894Z,100.00
2022-09-20T05:16:58.024Z,100.00
2022-09-20T05:20:06.664Z,100.00
2022-09-20T05:23:08.458Z,100.00
2022-09-20T05:26:31.190Z,100.00
2022-09-20T05:30:08.676Z,100.00
2022-09-20T05:33:12.707Z,100.00
2022-09-20T05:36:13.599Z,100.00
2022-09-20T05:39:23.522Z,100.00
2022-09-20T05:42:28.938Z,100.00
2022-09-20T05:45:36.014Z,100.00
2022-09-20T05:48:52.412Z,100.00
2022-09-20T05:52:07.143Z,100.00
2022-09-20T05:55:26.403Z,100.00
2022-09-20T05:58:29.524Z,100.00
2022-09-20T06:01:34.326Z,100.00
2022-09-20T06:04:25.650Z,100.00
2022-09-20T06:08:08.610Z,100.00
2022-09-20T06:11:02.029Z,100.00
2022-09-20T06:14:03.709Z,100.00
2022-09-20T06:17:04.482Z,100.00
2022-09-20T06:20:10.984Z,100.00
2022-09-20T06:23:00.511Z,100.00
2022-09-20T06:25:55.075Z,100.00
2022-09-20T06:28:44.513Z,100.00
2022-09-20T06:31:29.572Z,100.00
2022-09-20T06:34:15.787Z,100.00
2022-09-20T06:37:48.125Z,100.00
2022-09-20T06:41:01.630Z,100.00
2022-09-20T06:43:48.544Z,100.00
2022-09-20T06:46:36.081Z,100.00
2022-09-20T06:49:24.092Z,100.00
2022-09-20T06:52:15.324Z,100.00
2022-09-20T06:55:00.651Z,100.00
2022-09-20T06:57:45.897Z,100.00
2022-09-20T07:00:30.750Z,100.00
2022-09-20T07:03:15.561Z,100.00
2022-09-20T07:06:01.912Z,100.00
2022-09-20T07:08:47.070Z,100.00
2022-09-20T07:11:34.106Z,99.06
2022-09-20T07:14:19.156Z,99.84
2022-09-20T07:17:04.747Z,98.85
2022-09-20T07:19:49.710Z,98.94
2022-09-20T07:22:34.781Z,97.11
2022-09-20T07:25:20.703Z,96.51
2022-09-20T07:28:05.859Z,97.14
2022-09-20T07:30:51.708Z,96.70
2022-09-20T07:33:36.624Z,94.96
2022-09-20T07:36:21.964Z,93.39
2022-09-20T07:39:06.906Z,87.23
2022-09-20T07:41:51.758Z,89.02
2022-09-20T07:44:36.603Z,90.04
2022-09-20T07:47:22.001Z,89.56
2022-09-20T07:50:07.298Z,89.47
2022-09-20T07:52:56.174Z,88.91
2022-09-20T07:55:41.216Z,87.61
2022-09-20T07:58:26.740Z,87.00
2022-09-20T08:01:13.289Z,87.51
2022-09-20T08:03:58.654Z,87.90
2022-09-20T08:06:45.219Z,88.11
2022-09-20T08:09:30.394Z,86.47
2022-09-20T08:15:20.270Z,83.47
2022-09-20T08:18:11.914Z,83.02
2022-09-20T08:20:57.188Z,81.99
2022-09-20T08:23:44.165Z,82.25
2022-09-20T08:26:31.390Z,82.96
2022-09-20T08:29:16.224Z,82.16
2022-09-20T08:32:02.074Z,83.78
2022-09-20T08:34:49.299Z,82.47
2022-09-20T08:37:35.345Z,81.26
2022-09-20T08:40:23.803Z,80.50
2022-09-20T08:43:09.931Z,80.71
2022-09-20T08:46:05.521Z,79.66
2022-09-20T08:48:52.162Z,74.37
2022-09-20T08:51:41.508Z,70.14
2022-09-20T08:54:31.833Z,68.24
2022-09-20T08:57:20.222Z,63.68
2022-09-20T09:00:06.874Z,60.37
2022-09-20T09:02:58.535Z,67.35
2022-09-20T09:05:46.710Z,68.78
2022-09-20T09:08:38.197Z,69.11
2022-09-20T09:11:23.399Z,70.05
2022-09-20T09:14:41.524Z,72.95
2022-09-20T09:17:30.565Z,74.02
2022-09-20T09:20:21.469Z,72.70
2022-09-20T09:23:11.096Z,72.43
2022-09-20T09:25:56.501Z,74.94
2022-09-20T09:28:41.647Z,74.15
2022-09-20T09:31:26.629Z,76.12
2022-09-20T09:34:33.986Z,74.51
2022-09-20T09:37:30.991Z,70.22
2022-09-20T09:40:18.788Z,58.76
2022-09-20T09:43:04.138Z,55.59
2022-09-20T09:45:49.301Z,50.49
2022-09-20T09:48:36.717Z,51.31
2022-09-20T09:51:23.435Z,50.51
2022-09-20T09:54:17.672Z,47.05
2022-09-20T09:57:39.670Z,50.66
2022-09-20T10:00:27.147Z,59.12
2022-09-20T10:03:18.958Z,64.67
2022-09-20T10:06:32.233Z,64.99
2022-09-20T10:09:32.687Z,63.40
2022-09-20T10:12:36.611Z,65.95
2022-09-20T10:15:44.263Z,69.61
2022-09-20T10:18:50.010Z,69.59
2022-09-20T10:21:49.107Z,67.74
2022-09-20T10:25:03.646Z,66.91
2022-09-20T10:28:02.537Z,67.36
2022-09-20T10:31:08.646Z,65.57
2022-09-20T10:34:12.254Z,65.11
2022-09-20T10:36:58.799Z,65.42
2022-09-20T10:39:48.076Z,66.86
2022-09-20T10:43:00.316Z,67.68
2022-09-20T10:46:31.247Z,70.71
2022-09-20T10:49:52.088Z,69.57
2022-09-20T10:52:40.253Z,71.21
2022-09-20T10:55:59.079Z,72.12
2022-09-20T10:59:06.595Z,71.62
2022-09-20T11:02:05.020Z,66.15
2022-09-20T11:05:14.451Z,67.09
2022-09-20T11:08:08.106Z,65.48
2022-09-20T11:10:58.107Z,66.28
2022-09-20T11:14:01.471Z,64.73
2022-09-20T11:16:56.882Z,66.25
2022-09-20T11:20:07.668Z,68.18
2022-09-20T11:23:03.607Z,68.08
2022-09-20T11:25:54.125Z,69.95
2022-09-20T11:28:51.904Z,67.27
2022-09-20T11:31:43.497Z,67.66
2022-09-20T11:34:33.418Z,68.41
2022-09-20T11:37:19.230Z,68.29
2022-09-20T11:40:17.359Z,68.76
2022-09-20T11:43:06.539Z,70.19
2022-09-20T11:45:55.263Z,72.37
2022-09-20T11:48:49.733Z,76.36
2022-09-20T11:51:40.873Z,77.58
2022-09-20T11:54:43.764Z,80.14
2022-09-20T11:57:29.455Z,80.32
2022-09-20T12:00:14.967Z,82.80
2022-09-20T12:03:00.852Z,85.18
2022-09-20T12:05:45.968Z,85.95
2022-09-20T12:08:35.867Z,87.52
2022-09-20T12:11:31.042Z,87.87
2022-09-20T12:14:19.596Z,86.62
2022-09-20T12:17:05.352Z,86.10
2022-09-20T12:19:50.516Z,85.82
2022-09-20T12:22:35.421Z,84.67
2022-09-20T12:25:39.417Z,83.81
2022-09-20T12:28:36.413Z,84.69
2022-09-20T12:31:21.584Z,81.00
2022-09-20T12:34:15.735Z,81.43
2022-09-20T12:37:00.526Z,80.55
2022-09-20T12:39:55.258Z,79.70
2022-09-20T12:42:40.558Z,75.94
2022-09-20T12:45:25.511Z,74.62
2022-09-20T12:48:19.321Z,73.76
2022-09-20T12:51:50.657Z,73.00
2022-09-20T12:54:50.325Z,73.47
2022-09-20T12:57:35.586Z,74.63
2022-09-20T13:00:34.301Z,75.89
2022-09-20T13:03:38.060Z,73.52
2022-09-20T13:06:24.918Z,73.77
2022-09-20T13:09:13.040Z,73.00
2022-09-20T13:12:01.986Z,71.92
2022-09-20T13:14:47.576Z,70.77
2022-09-20T13:17:34.147Z,71.09
2022-09-20T13:20:30.954Z,70.30
2022-09-20T13:23:21.520Z,68.63
2022-09-20T13:26:09.280Z,67.63
2022-09-20T13:28:56.922Z,69.50
2022-09-20T13:31:41.854Z,68.80
2022-09-20T13:34:26.707Z,67.83
2022-09-20T13:37:21.592Z,68.44
2022-09-20T13:40:06.855Z,70.21
2022-09-20T13:43:12.906Z,72.40
2022-09-20T13:46:09.979Z,72.39
2022-09-20T13:49:23.531Z,72.88
2022-09-20T13:52:22.805Z,74.79
2022-09-20T13:55:34.312Z,72.64
2022-09-20T13:58:46.022Z,73.00
2022-09-20T14:01:33.537Z,74.16
2022-09-20T14:04:24.386Z,74.24
2022-09-20T14:07:09.901Z,76.60
2022-09-20T14:09:56.572Z,74.13
2022-09-20T14:12:49.427Z,74.77
2022-09-20T14:15:37.830Z,74.01
2022-09-20T14:18:24.280Z,74.70
2022-09-20T14:21:11.115Z,73.82
2022-09-20T14:24:02.717Z,73.70
2022-09-20T14:27:03.655Z,72.79
2022-09-20T14:29:53.401Z,72.49
2022-09-20T14:32:51.883Z,69.31
2022-09-20T14:35:36.937Z,68.81
2022-09-20T14:38:25.939Z,70.39
2022-09-20T14:41:12.526Z,68.89
2022-09-20T14:43:59.544Z,67.38
2022-09-20T14:46:44.629Z,67.64
2022-09-20T14:49:33.229Z,67.20
2022-09-20T14:52:31.678Z,67.56
2022-09-20T14:55:21.302Z,67.77
2022-09-20T14:58:12.250Z,69.26
2022-09-20T15:01:27.126Z,67.75
2022-09-20T15:04:21.424Z,67.36
2022-09-20T15:07:10.760Z,66.70
2022-09-20T15:09:55.818Z,67.64
2022-09-20T15:12:41.911Z,66.65
2022-09-20T15:15:26.785Z,67.75
2022-09-20T15:18:34.220Z,68.33
2022-09-20T15:21:19.236Z,70.93
2022-09-20T15:24:04.363Z,70.38
2022-09-20T15:26:49.280Z,70.77
2022-09-20T15:29:34.123Z,70.56
2022-09-20T15:32:18.948Z,72.53
2022-09-20T15:35:04.168Z,71.49
2022-09-20T15:37:49.271Z,69.74
2022-09-20T15:40:47.178Z,70.65
2022-09-20T15:43:32.309Z,73.02
2022-09-20T15:46:22.890Z,71.70
2022-09-20T15:49:10.722Z,72.14
2022-09-20T15:51:55.567Z,72.68
2022-09-20T15:54:40.462Z,72.95
2022-09-20T15:57:26.870Z,74.60
2022-09-20T16:00:12.320Z,76.40
2022-09-20T16:02:57.323Z,74.77
2022-09-20T16:05:42.031Z,76.00
2022-09-20T16:08:31.631Z,75.15
2022-09-20T16:11:22.722Z,76.20
2022-09-20T16:14:08.206Z,75.94
2022-09-20T16:16:53.248Z,77.20
2022-09-20T16:19:38.471Z,78.48
2022-09-20T16:22:23.378Z,78.16
2022-09-20T16:25:08.672Z,77.84
2022-09-20T16:27:54.006Z,77.09
2022-09-20T16:30:38.978Z,77.89
2022-09-20T16:33:23.980Z,77.10
2022-09-20T16:36:08.750Z,78.47
2022-09-20T16:38:55.200Z,77.50
2022-09-20T16:41:40.472Z,78.11
2022-09-20T16:44:25.349Z,76.86
2022-09-20T16:47:12.848Z,76.28
2022-09-20T16:49:58.286Z,74.98
2022-09-20T16:52:43.491Z,78.67
2022-09-20T16:55:28.370Z,73.20
2022-09-20T16:58:13.178Z,78.27
2022-09-20T17:01:05.107Z,76.67
2022-09-20T17:03:49.978Z,74.34
2022-09-20T17:06:37.339Z,75.46
2022-09-20T17:09:22.254Z,74.41
2022-09-20T17:12:09.320Z,75.52
2022-09-20T17:14:54.484Z,74.35
2022-09-20T17:17:39.859Z,76.26
2022-09-20T17:20:27.062Z,75.39
2022-09-20T17:23:12.332Z,72.75
2022-09-20T17:26:06.794Z,75.15
2022-09-20T17:28:57.959Z,73.18
2022-09-20T17:31:48.781Z,72.33
2022-09-20T17:34:36.607Z,76.81
2022-09-20T17:37:21.824Z,74.13
2022-09-20T17:40:07.406Z,77.12
2022-09-20T17:42:52.136Z,76.38
2022-09-20T17:45:36.912Z,77.00
2022-09-20T17:48:23.245Z,77.72
2022-09-20T17:51:12.701Z,74.20
2022-09-20T17:53:58.581Z,74.76
2022-09-20T17:56:46.216Z,75.02
2022-09-20T17:59:32.269Z,75.07
2022-09-20T18:02:17.367Z,76.11
2022-09-20T18:05:02.140Z,74.74
2022-09-20T18:07:47.064Z,75.33
2022-09-20T18:10:32.656Z,75.63
2022-09-20T18:13:17.882Z,75.82
2022-09-20T18:16:05.248Z,76.71
2022-09-20T18:18:50.208Z,80.56
2022-09-20T18:21:36.829Z,77.55
2022-09-20T18:24:21.945Z,80.61
2022-09-20T18:27:06.667Z,79.48
2022-09-20T18:29:51.621Z,81.52
2022-09-20T18:32:36.535Z,82.46
2022-09-20T18:35:21.951Z,80.12
2022-09-20T18:38:07.058Z,80.98
2022-09-20T18:41:00.319Z,78.60
2022-09-20T18:43:46.295Z,79.40
2022-09-20T18:46:31.460Z,80.40
2022-09-20T18:49:16.877Z,79.15
2022-09-20T18:52:02.839Z,79.90
2022-09-20T18:54:48.146Z,81.90
2022-09-20T18:57:33.426Z,82.20
2022-09-20T19:00:18.561Z,83.28
2022-09-20T19:03:21.008Z,80.88
2022-09-20T19:06:10.130Z,79.34
2022-09-20T19:09:07.155Z,80.58
2022-09-20T19:12:00.619Z,82.41
2022-09-20T19:15:10.101Z,79.64
2022-09-20T19:18:07.202Z,79.47
2022-09-20T19:21:29.225Z,80.12
2022-09-20T19:24:51.894Z,77.95
2022-09-20T19:27:37.416Z,78.91
2022-09-20T19:30:22.761Z,80.13
2022-09-20T19:33:19.044Z,79.55
2022-09-20T19:36:04.830Z,80.28
2022-09-20T19:39:24.155Z,81.72
2022-09-20T19:42:28.540Z,80.64
2022-09-20T19:45:28.822Z,80.65
2022-09-20T19:48:19.777Z,80.83
2022-09-20T19:51:10.151Z,82.16
2022-09-20T19:53:55.608Z,81.86
2022-09-20T19:56:56.060Z,81.97
2022-09-20T19:59:42.243Z,82.65
2022-09-20T20:02:27.354Z,83.17
2022-09-20T20:05:14.791Z,83.11
2022-09-20T20:08:39.200Z,82.94
2022-09-20T20:11:49.977Z,84.12
2022-09-20T20:14:58.735Z,83.70
2022-09-20T20:17:53.275Z,83.21
2022-09-20T20:20:43.971Z,83.73
2022-09-20T20:23:48.513Z,84.43
2022-09-20T20:26:33.401Z,85.14
2022-09-20T20:29:18.361Z,84.25
2022-09-20T20:32:03.398Z,86.92
2022-09-20T20:34:49.191Z,84.39
2022-09-20T20:37:34.595Z,86.91
2022-09-20T20:40:20.013Z,86.08
2022-09-20T20:43:06.049Z,87.03
2022-09-20T20:45:51.039Z,87.96
2022-09-20T20:48:36.809Z,88.06
2022-09-20T20:51:22.519Z,88.73
2022-09-20T20:54:07.906Z,89.32
2022-09-20T20:56:52.643Z,89.94
2022-09-20T20:59:37.499Z,93.02
2022-09-20T21:02:22.355Z,91.11
2022-09-20T21:05:07.657Z,93.05
2022-09-20T21:07:52.978Z,91.41
2022-09-20T21:10:37.961Z,92.16
2022-09-20T21:13:22.782Z,91.95
2022-09-20T21:16:16.358Z,91.74
2022-09-20T21:19:03.948Z,94.67
2022-09-20T21:21:48.994Z,94.29
2022-09-20T21:24:33.828Z,92.91
2022-09-20T21:27:19.514Z,93.23
2022-09-20T21:30:04.982Z,93.10
2022-09-20T21:32:53.518Z,93.92
2022-09-20T21:35:38.619Z,93.17
2022-09-20T21:38:23.437Z,93.51
2022-09-20T21:41:11.738Z,94.94
2022-09-20T21:43:59.063Z,95.10
2022-09-20T21:46:44.672Z,95.68
2022-09-20T21:49:29.776Z,96.26
2022-09-20T21:52:14.717Z,96.07
2022-09-20T21:54:59.825Z,96.83
2022-09-20T21:57:44.571Z,96.51
2022-09-20T22:00:29.412Z,95.58
2022-09-20T22:03:14.274Z,95.71
2022-09-20T22:06:07.277Z,96.03
2022-09-20T22:08:56.766Z,96.14
2022-09-20T22:11:44.719Z,98.47
2022-09-20T22:14:29.423Z,97.37
2022-09-20T22:17:14.382Z,97.19
2022-09-20T22:19:59.402Z,98.74
2022-09-20T22:22:44.539Z,98.48
2022-09-20T22:25:30.299Z,99.41
2022-09-20T22:28:15.562Z,99.88
2022-09-20T22:31:10.672Z,99.56
2022-09-20T22:33:57.718Z,99.22
2022-09-20T22:36:42.796Z,100.00
2022-09-20T22:39:27.734Z,100.00
2022-09-20T22:42:12.498Z,100.00
2022-09-20T22:44:59.332Z,100.00
2022-09-20T22:47:44.309Z,100.00
2022-09-20T22:50:29.409Z,100.00
2022-09-20T22:53:14.362Z,100.00
2022-09-20T22:56:14.737Z,100.00
2022-09-20T22:59:03.413Z,100.00
2022-09-20T23:01:48.534Z,100.00
2022-09-20T23:04:33.531Z,100.00
2022-09-20T23:07:18.350Z,100.00
2022-09-20T23:10:03.579Z,99.33
2022-09-20T23:12:52.220Z,100.00
2022-09-20T23:15:36.938Z,100.00
2022-09-20T23:18:21.790Z,100.00
2022-09-20T23:21:07.043Z,100.00
2022-09-20T23:23:59.892Z,100.00
2022-09-20T23:26:45.266Z,99.42
2022-09-20T23:29:31.829Z,100.00
2022-09-20T23:32:16.799Z,98.41
2022-09-20T23:35:01.749Z,98.76
2022-09-20T23:37:46.551Z,98.89
2022-09-20T23:40:33.574Z,99.81
2022-09-20T23:43:18.643Z,99.57
2022-09-20T23:46:05.034Z,99.81
2022-09-20T23:48:50.558Z,100.00
2022-09-20T23:51:36.187Z,100.00
2022-09-20T23:54:20.975Z,100.00
2022-09-20T23:57:05.777Z,100.00
2022-09-20T23:59:50.624Z,100.00
